createdAt,value
2023-01-29T00:01:42.245Z,9.03
2023-01-29T00:05:43.457Z,9.40
2023-01-29T00:09:44.634Z,8.97
2023-01-29T00:13:46.696Z,8.67
2023-01-29T00:17:47.687Z,9.00
2023-01-29T00:21:48.723Z,8.20
2023-01-29T00:25:49.902Z,8.73
2023-01-29T00:29:53.068Z,8.50
2023-01-29T00:33:54.270Z,8.57
2023-01-29T00:37:56.285Z,10.07
2023-01-29T00:42:15.581Z,10.03
2023-01-29T00:46:16.635Z,9.83
2023-01-29T00:50:18.518Z,10.23
2023-01-29T00:54:19.739Z,11.10
2023-01-29T00:58:21.787Z,10.23
2023-01-29T01:02:41.907Z,9.47
2023-01-29T01:06:43.049Z,8.63
2023-01-29T01:10:44.523Z,11.00
2023-01-29T01:14:45.767Z,10.33
2023-01-29T01:18:46.859Z,9.97
2023-01-29T01:22:48.078Z,10.10
2023-01-29T01:26:49.282Z,9.67
2023-01-29T01:30:50.338Z,9.50
2023-01-29T01:34:52.394Z,12.70
2023-01-29T01:38:54.390Z,9.63
2023-01-29T01:43:00.269Z,10.40
2023-01-29T01:47:01.542Z,10.87
2023-01-29T01:51:05.955Z,10.37
2023-01-29T01:55:10.699Z,10.40
2023-01-29T01:59:15.686Z,10.77
2023-01-29T02:03:37.772Z,11.23
2023-01-29T02:08:06.249Z,11.77
2023-01-29T02:12:10.541Z,12.90
2023-01-29T02:16:11.564Z,13.03
2023-01-29T02:20:16.797Z,13.30
2023-01-29T02:24:48.108Z,14.03
2023-01-29T02:29:24.559Z,12.63
2023-01-29T02:34:01.414Z,13.37
2023-01-29T02:38:24.354Z,13.37
2023-01-29T02:42:35.279Z,11.07
2023-01-29T02:46:42.840Z,11.77
2023-01-29T02:50:58.944Z,11.93
2023-01-29T02:55:16.027Z,12.17
2023-01-29T02:59:20.827Z,11.27
2023-01-29T03:03:28.790Z,11.73
2023-01-29T03:07:44.112Z,12.33
2023-01-29T03:11:48.938Z,12.63
2023-01-29T03:15:58.520Z,13.23
2023-01-29T03:20:01.252Z,15.10
2023-01-29T03:24:21.788Z,14.20
2023-01-29T03:28:42.161Z,15.40
2023-01-29T03:32:45.590Z,14.93
2023-01-29T03:36:54.962Z,16.07
2023-01-29T03:40:59.803Z,14.87
2023-01-29T03:45:21.546Z,15.13
2023-01-29T03:49:44.678Z,15.67
2023-01-29T03:54:04.563Z,15.00
2023-01-29T03:58:09.315Z,14.87
2023-01-29T04:02:18.831Z,19.20
2023-01-29T04:06:26.513Z,17.83
2023-01-29T04:10:29.258Z,16.40
2023-01-29T04:14:32.041Z,16.40
2023-01-29T04:18:35.032Z,16.17
2023-01-29T04:22:38.747Z,17.03
2023-01-29T04:27:15.509Z,16.17
2023-01-29T04:31:19.373Z,16.17
2023-01-29T04:35:35.944Z,17.77
2023-01-29T04:39:58.988Z,18.00
2023-01-29T04:44:03.891Z,17.17
2023-01-29T04:48:08.617Z,18.00
2023-01-29T04:52:25.623Z,20.77
2023-01-29T04:56:36.169Z,20.87
2023-01-29T05:00:40.915Z,21.63
2023-01-29T05:04:44.051Z,20.37
2023-01-29T05:08:46.961Z,20.80
2023-01-29T05:12:58.142Z,20.47
2023-01-29T05:17:02.885Z,18.13
2023-01-29T05:21:06.952Z,16.73
2023-01-29T05:25:26.582Z,15.57
2023-01-29T05:29:27.949Z,16.87
2023-01-29T05:33:30.856Z,16.37
2023-01-29T05:37:31.910Z,16.57
2023-01-29T05:41:32.899Z,16.00
2023-01-29T05:45:34.019Z,16.83
2023-01-29T05:49:35.724Z,17.07
2023-01-29T05:53:37.770Z,16.50
2023-01-29T05:57:40.245Z,17.13
2023-01-29T06:01:43.286Z,18.27
2023-01-29T06:05:44.289Z,19.50
2023-01-29T06:09:45.375Z,20.43
2023-01-29T06:13:47.129Z,20.50
2023-01-29T06:17:48.236Z,20.33
2023-01-29T06:21:49.246Z,20.77
2023-01-29T06:25:50.345Z,19.47
2023-01-29T06:29:53.648Z,19.13
2023-01-29T06:33:54.851Z,20.50
2023-01-29T06:37:56.314Z,18.37
2023-01-29T06:41:57.406Z,19.13
2023-01-29T06:45:58.555Z,20.13
2023-01-29T06:50:00.141Z,22.13
2023-01-29T06:54:01.082Z,22.60
2023-01-29T06:58:11.299Z,22.90
2023-01-29T07:02:12.847Z,25.03
2023-01-29T07:06:13.870Z,23.83
2023-01-29T07:10:15.473Z,22.57
2023-01-29T07:14:17.012Z,24.77
2023-01-29T07:18:18.108Z,23.07
2023-01-29T07:22:19.316Z,21.57
2023-01-29T07:26:20.650Z,20.97
2023-01-29T07:30:21.835Z,22.37
2023-01-29T07:34:22.988Z,22.07
2023-01-29T07:38:24.097Z,23.17
2023-01-29T07:42:25.205Z,24.23
2023-01-29T07:46:26.157Z,23.73
2023-01-29T07:50:27.653Z,22.90
2023-01-29T07:54:28.816Z,23.87
2023-01-29T07:58:30.014Z,23.83
2023-01-29T08:02:31.371Z,25.93
2023-01-29T08:06:32.472Z,25.90
2023-01-29T08:10:35.093Z,32.77
2023-01-29T08:14:36.327Z,29.83
2023-01-29T08:18:38.090Z,29.50
2023-01-29T08:22:39.226Z,28.47
2023-01-29T08:26:40.456Z,26.67
2023-01-29T08:30:43.393Z,26.17
2023-01-29T08:34:45.742Z,26.77
2023-01-29T08:38:46.921Z,24.57
2023-01-29T08:42:47.992Z,23.57
2023-01-29T08:46:48.990Z,24.87
2023-01-29T08:50:50.615Z,23.90
2023-01-29T08:54:51.770Z,23.60
2023-01-29T08:58:52.756Z,25.00
2023-01-29T09:02:53.935Z,26.97
2023-01-29T09:06:55.059Z,25.73
2023-01-29T09:10:59.029Z,24.73
2023-01-29T09:15:00.050Z,27.53
2023-01-29T09:19:01.221Z,27.83
2023-01-29T09:23:06.727Z,27.63
2023-01-29T09:27:10.354Z,28.20
2023-01-29T09:31:11.535Z,26.93
2023-01-29T09:35:12.624Z,26.07
2023-01-29T09:39:14.087Z,29.97
2023-01-29T09:43:22.011Z,25.73
2023-01-29T09:47:26.437Z,25.67
2023-01-29T09:51:34.359Z,24.93
2023-01-29T09:55:39.170Z,24.60
2023-01-29T09:59:40.215Z,28.67
2023-01-29T10:03:54.277Z,26.70
2023-01-29T10:08:04.645Z,25.33
2023-01-29T10:12:41.040Z,25.63
2023-01-29T10:17:03.826Z,23.93
2023-01-29T10:21:08.774Z,25.90
2023-01-29T10:25:13.085Z,26.27
2023-01-29T10:29:17.914Z,24.43
2023-01-29T10:33:22.869Z,23.73
2023-01-29T10:37:41.733Z,21.97
2023-01-29T10:42:15.416Z,24.23
2023-01-29T10:46:38.402Z,21.00
2023-01-29T10:50:43.381Z,22.67
2023-01-29T10:59:00.382Z,21.93
2023-01-29T11:03:27.529Z,24.40
2023-01-29T11:07:22.515Z,22.83
2023-01-29T11:11:30.445Z,22.83
2023-01-29T11:15:34.206Z,22.00
2023-01-29T11:19:41.756Z,22.93
2023-01-29T11:23:43.324Z,22.00
2023-01-29T11:28:01.814Z,21.50
2023-01-29T11:32:15.418Z,22.73
2023-01-29T11:36:37.824Z,21.40
2023-01-29T11:40:40.214Z,22.70
2023-01-29T11:44:42.470Z,21.93
2023-01-29T11:48:50.919Z,23.60
2023-01-29T11:52:52.558Z,22.70
2023-01-29T11:56:54.932Z,21.80
2023-01-29T12:00:58.002Z,19.73
2023-01-29T12:05:08.869Z,25.13
2023-01-29T12:09:15.520Z,27.70
2023-01-29T12:13:27.709Z,22.50
2023-01-29T12:17:32.313Z,23.90
2023-01-29T12:21:37.132Z,21.70
2023-01-29T12:25:41.970Z,20.17
2023-01-29T12:29:52.905Z,22.90
2023-01-29T12:34:00.550Z,21.07
2023-01-29T12:38:05.627Z,26.30
2023-01-29T12:42:21.882Z,22.73
2023-01-29T12:46:29.655Z,24.90
2023-01-29T12:50:35.765Z,22.87
2023-01-29T12:54:49.396Z,24.93
2023-01-29T12:58:53.142Z,22.00
2023-01-29T13:03:17.923Z,23.83
2023-01-29T13:07:23.890Z,22.60
2023-01-29T13:12:00.655Z,22.77
2023-01-29T13:16:05.831Z,20.73
2023-01-29T13:20:16.986Z,21.23
2023-01-29T13:24:21.624Z,18.97
2023-01-29T13:28:25.978Z,20.60
2023-01-29T13:32:30.026Z,21.03
2023-01-29T13:36:31.700Z,20.80
2023-01-29T13:40:35.354Z,22.60
2023-01-29T13:44:38.988Z,22.43
2023-01-29T13:48:46.127Z,19.57
2023-01-29T13:52:56.431Z,19.47
2023-01-29T13:56:59.802Z,20.20
2023-01-29T14:01:01.095Z,20.73
2023-01-29T14:09:31.166Z,21.23
2023-01-29T14:13:35.146Z,16.83
2023-01-29T14:17:37.491Z,16.00
2023-01-29T14:21:38.992Z,19.60
2023-01-29T14:25:40.640Z,15.80
2023-01-29T14:29:42.007Z,14.97
2023-01-29T14:33:43.603Z,14.73
2023-01-29T14:37:49.692Z,15.03
2023-01-29T14:41:51.867Z,15.40
2023-01-29T14:45:52.892Z,17.03
2023-01-29T14:49:57.293Z,14.13
2023-01-29T14:54:20.207Z,14.23
2023-01-29T14:58:28.443Z,19.10
2023-01-29T15:02:39.142Z,14.97
2023-01-29T15:06:50.015Z,16.50
2023-01-29T15:10:55.837Z,17.33
2023-01-29T15:15:09.603Z,21.30
2023-01-29T15:19:39.477Z,17.03
2023-01-29T15:23:40.746Z,13.73
2023-01-29T15:27:43.599Z,16.37
2023-01-29T15:31:46.986Z,14.83
2023-01-29T15:35:49.855Z,17.23
2023-01-29T15:39:52.973Z,16.57
2023-01-29T15:43:57.042Z,16.50
2023-01-29T15:48:05.835Z,15.60
2023-01-29T15:52:28.662Z,16.27
2023-01-29T15:56:33.445Z,17.37
2023-01-29T16:00:35.341Z,15.63
2023-01-29T16:04:36.494Z,19.77
2023-01-29T16:08:39.569Z,21.20
2023-01-29T16:12:41.159Z,21.40
2023-01-29T16:16:45.218Z,20.27
2023-01-29T16:20:56.944Z,20.90
2023-01-29T16:25:04.178Z,19.73
2023-01-29T16:29:07.426Z,20.10
2023-01-29T16:33:15.237Z,20.47
2023-01-29T16:37:23.272Z,20.50
2023-01-29T16:41:30.787Z,21.17
2023-01-29T16:45:31.800Z,19.00
2023-01-29T16:49:39.475Z,19.17
2023-01-29T16:53:44.352Z,20.60
2023-01-29T16:57:49.525Z,21.73
2023-01-29T17:01:51.286Z,23.33
2023-01-29T17:05:53.080Z,21.57
2023-01-29T17:09:57.967Z,26.53
2023-01-29T17:13:59.584Z,21.77
2023-01-29T17:18:02.812Z,21.33
2023-01-29T17:22:05.811Z,22.30
2023-01-29T17:26:09.415Z,29.05
2023-01-29T17:30:15.551Z,26.70
2023-01-29T17:34:17.275Z,28.27
2023-01-29T17:38:25.921Z,25.90
2023-01-29T17:42:22.691Z,24.33
2023-01-29T17:46:23.835Z,23.43
2023-01-29T17:50:27.773Z,23.27
2023-01-29T17:54:29.610Z,37.80
2023-01-29T17:58:31.626Z,29.37
2023-01-29T18:02:33.341Z,32.73
2023-01-29T18:06:35.288Z,34.73
2023-01-29T18:10:36.717Z,37.97
2023-01-29T18:14:39.251Z,32.07
2023-01-29T18:18:40.648Z,36.13
2023-01-29T18:22:42.173Z,25.73
2023-01-29T18:26:43.190Z,25.50
2023-01-29T18:30:46.484Z,28.73
2023-01-29T18:34:47.466Z,30.83
2023-01-29T18:38:48.735Z,33.47
2023-01-29T18:42:49.917Z,28.67
2023-01-29T18:46:51.434Z,26.73
2023-01-29T18:50:52.509Z,33.93
2023-01-29T18:54:54.037Z,31.53
2023-01-29T18:58:56.104Z,32.23
2023-01-29T19:02:57.403Z,32.30
2023-01-29T19:06:58.578Z,28.03
2023-01-29T19:11:02.441Z,28.07
2023-01-29T19:15:04.713Z,29.57
2023-01-29T19:19:06.413Z,26.07
2023-01-29T19:23:09.125Z,25.93
2023-01-29T19:27:11.217Z,29.03
2023-01-29T19:31:13.173Z,39.47
2023-01-29T19:35:14.867Z,50.47
2023-01-29T19:39:17.659Z,52.20
2023-01-29T19:43:18.825Z,48.13
2023-01-29T19:47:20.554Z,37.33
2023-01-29T19:51:22.955Z,36.90
2023-01-29T19:55:24.619Z,32.13
2023-01-29T19:59:26.341Z,34.53
2023-01-29T20:03:28.802Z,36.47
2023-01-29T20:07:30.685Z,35.50
2023-01-29T20:11:32.456Z,36.00
2023-01-29T20:15:33.816Z,37.83
2023-01-29T20:19:35.067Z,34.00
2023-01-29T20:23:38.391Z,43.90
2023-01-29T20:27:39.545Z,37.10
2023-01-29T20:31:41.135Z,35.07
2023-01-29T20:35:42.404Z,36.60
2023-01-29T20:39:43.548Z,35.03
2023-01-29T20:43:46.458Z,36.53
2023-01-29T20:47:50.326Z,46.13
2023-01-29T20:51:51.485Z,37.73
2023-01-29T20:55:52.683Z,40.87
2023-01-29T20:59:54.338Z,38.10
2023-01-29T21:03:55.619Z,36.73
2023-01-29T21:07:56.782Z,37.20
2023-01-29T21:11:57.857Z,35.60
2023-01-29T21:15:59.196Z,36.03
2023-01-29T21:20:00.356Z,35.80
2023-01-29T21:24:01.621Z,37.70
2023-01-29T21:28:03.727Z,37.07
2023-01-29T21:32:04.814Z,34.03
2023-01-29T21:36:07.365Z,38.23
2023-01-29T21:40:10.265Z,34.70
2023-01-29T21:44:12.113Z,34.07
2023-01-29T21:48:13.415Z,28.67
2023-01-29T21:52:15.013Z,30.73
2023-01-29T21:56:18.278Z,29.63
2023-01-29T22:00:19.691Z,30.43
2023-01-29T22:04:21.080Z,31.70
2023-01-29T22:08:22.043Z,32.33
2023-01-29T22:12:23.273Z,30.47
2023-01-29T22:16:24.319Z,31.90
2023-01-29T22:20:27.470Z,32.00
2023-01-29T22:24:28.533Z,32.70
2023-01-29T22:28:29.486Z,34.80
2023-01-29T22:32:32.064Z,34.37
2023-01-29T22:36:33.070Z,31.60
2023-01-29T22:40:34.115Z,30.90
2023-01-29T22:44:35.081Z,31.40
2023-01-29T22:48:36.489Z,34.93
2023-01-29T22:52:41.771Z,33.03
2023-01-29T22:56:42.706Z,31.63
2023-01-29T23:00:43.814Z,30.53
2023-01-29T23:04:44.997Z,30.47
2023-01-29T23:08:46.097Z,31.03
2023-01-29T23:12:47.007Z,35.00
2023-01-29T23:16:48.182Z,37.70
2023-01-29T23:20:52.898Z,32.73
2023-01-29T23:24:53.991Z,24.60
2023-01-29T23:28:55.286Z,23.33
2023-01-29T23:32:56.240Z,22.07
2023-01-29T23:36:57.326Z,27.70
2023-01-29T23:40:59.144Z,24.57
2023-01-29T23:45:00.120Z,26.93
2023-01-29T23:49:01.447Z,26.80
2023-01-29T23:53:02.573Z,26.10
2023-01-29T23:57:03.749Z,27.87
